Time;durP1;ratioP1;P1;durP2;ratioP2;P2;SDS_P1;SDS_P2;PMS_P1;PMS_P2;Temp;Humidity;BMP_temperature;BMP_pressure;BME280_temperature;BME280_humidity;BME280_pressure;Samples;Min_cycle;Max_cycle;Signal;HPM_P1;HPM_P2
2022/10/31 00:00:54;;;;;;;5.93;4.30;;;;;;;;;;6154889;23;20207;-89
2022/10/31 00:03:22;;;;;;;4.57;2.90;;;;;;;;;;6154410;23;20195;-89
2022/10/31 00:05:51;;;;;;;1.17;1.00;;;;;;;;;;6154929;23;20206;-89
2022/10/31 00:08:19;;;;;;;1.53;1.43;;;;;;;;;;6154362;23;20180;-89
2022/10/31 00:10:48;;;;;;;1.60;1.50;;;;;;;;;;6154677;23;20199;-89
2022/10/31 00:13:16;;;;;;;1.43;1.23;;;;;;;;;;6154849;23;20175;-88
2022/10/31 00:15:46;;;;;;;0.60;0.60;;;;;;;;;;6154663;23;20176;-89
2022/10/31 00:18:15;;;;;;;0.90;0.90;;;;;;;;;;6154990;23;20179;-89
2022/10/31 00:20:43;;;;;;;0.97;0.97;;;;;;;;;;6154759;23;20173;-89
2022/10/31 00:23:12;;;;;;;0.50;0.50;;;;;;;;;;6154687;23;20172;-89
2022/10/31 00:25:41;;;;;;;3.70;1.53;;;;;;;;;;6154316;23;20186;-89
2022/10/31 00:28:11;;;;;;;8.07;4.40;;;;;;;;;;6154290;23;20180;-89
2022/10/31 00:30:39;;;;;;;6.90;4.90;;;;;;;;;;6154229;23;20195;-89
2022/10/31 00:33:09;;;;;;;6.87;4.70;;;;;;;;;;6154154;23;20180;-89
2022/10/31 00:35:38;;;;;;;5.10;4.10;;;;;;;;;;6154616;23;20274;-89
2022/10/31 00:38:09;;;;;;;4.03;3.63;;;;;;;;;;6155810;23;20176;-89
2022/10/31 00:40:37;;;;;;;4.77;3.30;;;;;;;;;;6154240;23;20178;-89
2022/10/31 00:43:06;;;;;;;5.07;4.00;;;;;;;;;;6154369;23;20202;-89
2022/10/31 00:45:34;;;;;;;5.20;3.67;;;;;;;;;;6154235;23;20222;-89
2022/10/31 00:48:03;;;;;;;5.70;3.47;;;;;;;;;;6155551;23;20211;-89
2022/10/31 00:50:35;;;;;;;6.07;4.90;;;;;;;;;;6154167;23;20195;-89
2022/10/31 00:53:04;;;;;;;8.63;5.23;;;;;;;;;;6154536;23;20171;-89
2022/10/31 00:55:32;;;;;;;6.87;6.17;;;;;;;;;;6154229;23;20180;-89
2022/10/31 00:58:00;;;;;;;10.07;7.60;;;;;;;;;;6154168;23;20254;-89
2022/10/31 01:00:30;;;;;;;12.33;9.73;;;;;;;;;;6154710;23;20176;-89
2022/10/31 01:02:58;;;;;;;12.33;9.50;;;;;;;;;;6154153;23;20180;-89
2022/10/31 01:05:29;;;;;;;12.53;9.33;;;;;;;;;;6154310;23;20262;-89
2022/10/31 01:07:59;;;;;;;12.83;8.93;;;;;;;;;;6154495;23;20270;-89
2022/10/31 01:10:28;;;;;;;8.47;7.00;;;;;;;;;;6154034;23;20202;-89
2022/10/31 01:12:59;;;;;;;9.50;5.23;;;;;;;;;;6154263;23;20180;-89
2022/10/31 01:15:28;;;;;;;1.43;1.33;;;;;;;;;;6154206;23;20180;-89
2022/10/31 01:17:57;;;;;;;8.97;8.13;;;;;;;;;;6154642;23;20198;-89
2022/10/31 01:20:26;;;;;;;3.73;3.30;;;;;;;;;;6155394;23;20176;-89
2022/10/31 01:22:54;;;;;;;2.23;2.03;;;;;;;;;;6154583;23;20184;-89
2022/10/31 01:25:24;;;;;;;5.97;4.63;;;;;;;;;;6154283;23;20176;-89
2022/10/31 01:27:55;;;;;;;5.10;4.10;;;;;;;;;;6154364;23;20206;-89
2022/10/31 01:30:24;;;;;;;5.40;4.30;;;;;;;;;;6154425;23;20196;-89
2022/10/31 01:32:53;;;;;;;4.37;3.77;;;;;;;;;;6153887;23;20175;-89
2022/10/31 01:35:21;;;;;;;8.27;5.40;;;;;;;;;;6153817;23;20208;-89
2022/10/31 01:37:50;;;;;;;6.33;4.17;;;;;;;;;;6154505;23;20175;-89
2022/10/31 01:40:18;;;;;;;0.93;0.87;;;;;;;;;;6154463;23;20215;-89
2022/10/31 01:42:48;;;;;;;11.00;7.97;;;;;;;;;;6154142;23;20184;-89
2022/10/31 01:45:16;;;;;;;9.47;7.17;;;;;;;;;;6155755;23;20179;-89
2022/10/31 01:47:47;;;;;;;11.80;8.47;;;;;;;;;;6157386;23;20178;-88
2022/10/31 01:50:20;;;;;;;10.33;8.80;;;;;;;;;;6155616;23;20187;-89
2022/10/31 01:52:51;;;;;;;6.93;5.80;;;;;;;;;;6157414;23;20199;-89
2022/10/31 01:55:22;;;;;;;7.57;6.77;;;;;;;;;;6156096;23;20180;-89
2022/10/31 01:57:59;;;;;;;8.50;7.10;;;;;;;;;;6157069;23;20242;-89
2022/10/31 02:00:28;;;;;;;8.43;7.10;;;;;;;;;;6155761;23;20178;-89
2022/10/31 02:02:56;;;;;;;10.83;8.53;;;;;;;;;;6157018;23;20196;-89
2022/10/31 02:05:27;;;;;;;6.70;4.33;;;;;;;;;;6156156;23;20180;-89
2022/10/31 02:07:57;;;;;;;7.53;4.57;;;;;;;;;;6157204;23;20182;-89
2022/10/31 02:10:26;;;;;;;4.97;4.03;;;;;;;;;;6155394;23;20213;-89
2022/10/31 02:12:56;;;;;;;0.50;0.50;;;;;;;;;;6155987;23;20176;-89
2022/10/31 02:15:27;;;;;;;1.13;1.13;;;;;;;;;;6157172;23;20239;-89
2022/10/31 02:17:55;;;;;;;4.83;4.43;;;;;;;;;;6155897;23;20187;-89
2022/10/31 02:20:25;;;;;;;11.00;6.17;;;;;;;;;;6155934;23;20180;-89
2022/10/31 02:23:09;;;;;;;4.43;3.70;;;;;;;;;;6155913;23;20206;-89
2022/10/31 02:25:49;;;;;;;8.57;6.07;;;;;;;;;;6155498;23;20201;-88
2022/10/31 02:28:28;;;;;;;10.37;7.50;;;;;;;;;;6155456;23;20184;-88
2022/10/31 02:31:08;;;;;;;9.83;6.33;;;;;;;;;;6155175;23;20196;-89
2022/10/31 02:33:41;;;;;;;7.33;5.60;;;;;;;;;;6155427;23;20200;-89
2022/10/31 02:36:13;;;;;;;6.40;4.77;;;;;;;;;;6155420;23;20210;-88
2022/10/31 02:38:48;;;;;;;2.97;2.77;;;;;;;;;;6155441;23;20241;-89
2022/10/31 02:41:20;;;;;;;1.70;1.60;;;;;;;;;;6155128;23;20178;-89
2022/10/31 02:43:55;;;;;;;4.10;2.60;;;;;;;;;;6155297;23;20189;-89
2022/10/31 02:46:28;;;;;;;5.30;4.53;;;;;;;;;;6155324;23;20230;-89
2022/10/31 02:48:59;;;;;;;2.63;2.43;;;;;;;;;;6155089;23;20175;-89
2022/10/31 02:51:31;;;;;;;5.63;4.57;;;;;;;;;;6155296;23;20221;-89
2022/10/31 02:54:00;;;;;;;10.17;7.83;;;;;;;;;;6155080;23;20199;-89
2022/10/31 02:56:28;;;;;;;10.00;8.70;;;;;;;;;;6155407;23;20191;-88
2022/10/31 02:59:00;;;;;;;11.53;9.43;;;;;;;;;;6154939;23;20210;-89
2022/10/31 03:01:50;;;;;;;11.53;10.00;;;;;;;;;;6156436;23;20171;-89
2022/10/31 03:04:30;;;;;;;10.70;7.60;;;;;;;;;;6156717;23;20206;-89
2022/10/31 03:07:05;;;;;;;9.63;7.17;;;;;;;;;;6155336;23;20183;-88
2022/10/31 03:09:35;;;;;;;9.90;7.03;;;;;;;;;;6154902;23;20224;-89
2022/10/31 03:12:08;;;;;;;10.60;7.90;;;;;;;;;;6156307;23;20218;-89
2022/10/31 03:14:40;;;;;;;11.23;7.90;;;;;;;;;;6155335;23;20183;-88
2022/10/31 03:17:15;;;;;;;1.77;1.67;;;;;;;;;;6154960;23;20179;-88
2022/10/31 03:19:45;;;;;;;0.50;0.50;;;;;;;;;;6155504;23;20214;-88
2022/10/31 03:22:17;;;;;;;0.67;0.67;;;;;;;;;;6155331;23;20175;-89
2022/10/31 03:24:47;;;;;;;0.60;0.60;;;;;;;;;;6154936;23;20184;-88
2022/10/31 03:27:18;;;;;;;1.03;1.03;;;;;;;;;;6155470;23;20193;-89
2022/10/31 03:29:46;;;;;;;0.57;0.57;;;;;;;;;;6154534;23;20236;-88
2022/10/31 03:32:18;;;;;;;0.90;0.90;;;;;;;;;;6154938;23;20223;-89
2022/10/31 03:34:47;;;;;;;0.50;0.50;;;;;;;;;;6154794;23;20183;-88
2022/10/31 03:37:18;;;;;;;0.60;0.60;;;;;;;;;;6154987;23;20234;-89
2022/10/31 03:39:48;;;;;;;0.50;0.50;;;;;;;;;;6154664;23;20183;-88
2022/10/31 03:42:17;;;;;;;0.60;0.60;;;;;;;;;;6156623;23;20171;-88
2022/10/31 03:44:48;;;;;;;1.57;1.47;;;;;;;;;;6155208;23;20191;-89
2022/10/31 03:47:19;;;;;;;1.50;1.40;;;;;;;;;;6154635;23;20184;-89
2022/10/31 03:49:49;;;;;;;1.87;1.77;;;;;;;;;;6154622;23;20220;-89
2022/10/31 03:52:20;;;;;;;0.50;0.50;;;;;;;;;;6154837;23;20199;-89
2022/10/31 03:54:53;;;;;;;6.13;2.50;;;;;;;;;;6154830;23;20247;-88
2022/10/31 03:57:26;;;;;;;2.20;2.00;;;;;;;;;;6155111;23;20186;-89
2022/10/31 03:59:59;;;;;;;1.70;1.50;;;;;;;;;;6154570;23;20175;-88
2022/10/31 04:02:32;;;;;;;0.63;0.63;;;;;;;;;;6154546;23;20179;-88
2022/10/31 04:05:01;;;;;;;1.13;1.13;;;;;;;;;;6156038;23;20202;-88
2022/10/31 04:07:31;;;;;;;3.37;1.77;;;;;;;;;;6154335;23;20175;-89
2022/10/31 04:10:00;;;;;;;1.50;1.40;;;;;;;;;;6154518;23;20226;-88
2022/10/31 04:12:30;;;;;;;0.60;0.60;;;;;;;;;;6155678;23;20192;-89
2022/10/31 04:14:59;;;;;;;0.83;0.83;;;;;;;;;;6155938;23;20178;-88
2022/10/31 04:17:33;;;;;;;3.90;1.17;;;;;;;;;;6154385;23;20179;-88
2022/10/31 04:20:09;;;;;;;4.73;4.20;;;;;;;;;;6154502;23;20197;-88
2022/10/31 04:22:37;;;;;;;3.90;3.60;;;;;;;;;;6154551;23;20172;-88
2022/10/31 04:25:07;;;;;;;10.83;8.10;;;;;;;;;;6154639;23;20184;-88
2022/10/31 04:27:35;;;;;;;15.90;10.60;;;;;;;;;;6154499;23;20178;-89
2022/10/31 04:30:04;;;;;;;9.40;7.07;;;;;;;;;;6155705;23;20168;-89
2022/10/31 04:32:37;;;;;;;10.13;8.23;;;;;;;;;;6154636;23;20306;-88
2022/10/31 04:35:06;;;;;;;14.03;8.97;;;;;;;;;;6153954;23;20183;-89
2022/10/31 04:37:35;;;;;;;8.43;5.80;;;;;;;;;;6154313;23;20174;-89
2022/10/31 04:40:04;;;;;;;10.40;7.97;;;;;;;;;;6156056;23;20169;-89
2022/10/31 04:42:32;;;;;;;10.77;8.80;;;;;;;;;;6154095;23;20204;-89
2022/10/31 04:45:01;;;;;;;12.70;11.20;;;;;;;;;;6155619;23;20175;-89
2022/10/31 04:47:32;;;;;;;16.07;13.33;;;;;;;;;;6154295;23;20182;-89
2022/10/31 04:50:02;;;;;;;9.80;8.17;;;;;;;;;;6154720;23;20183;-88
2022/10/31 04:52:30;;;;;;;4.03;3.70;;;;;;;;;;6154029;23;20202;-89
2022/10/31 04:54:59;;;;;;;12.37;9.17;;;;;;;;;;6154188;23;20207;-89
2022/10/31 04:57:27;;;;;;;21.27;16.43;;;;;;;;;;6154143;23;20183;-89
2022/10/31 04:59:56;;;;;;;27.23;21.60;;;;;;;;;;6154195;23;20204;-89
2022/10/31 05:02:24;;;;;;;22.40;17.47;;;;;;;;;;6154456;23;20175;-89
2022/10/31 05:04:55;;;;;;;22.90;18.20;;;;;;;;;;6154117;23;20194;-89
2022/10/31 05:07:25;;;;;;;15.33;11.50;;;;;;;;;;6155520;23;20174;-89
2022/10/31 05:09:53;;;;;;;23.63;19.80;;;;;;;;;;6154250;23;20179;-89
2022/10/31 05:12:22;;;;;;;16.17;13.37;;;;;;;;;;6154260;23;20209;-89
2022/10/31 05:14:50;;;;;;;6.33;3.63;;;;;;;;;;6154187;23;20190;-89
2022/10/31 05:17:19;;;;;;;3.37;3.17;;;;;;;;;;6154648;23;20182;-89
2022/10/31 05:19:48;;;;;;;17.40;3.07;;;;;;;;;;6156072;23;20187;-88
2022/10/31 05:22:19;;;;;;;1.17;1.17;;;;;;;;;;6155999;23;20177;-88
2022/10/31 05:24:49;;;;;;;1.70;1.23;;;;;;;;;;6157525;23;20172;-87
2022/10/31 05:27:19;;;;;;;0.50;0.50;;;;;;;;;;6156233;23;20203;-88
2022/10/31 05:29:48;;;;;;;2.50;2.33;;;;;;;;;;6156498;23;20186;-88
2022/10/31 05:32:16;;;;;;;1.10;1.10;;;;;;;;;;6155887;23;20176;-88
2022/10/31 05:34:45;;;;;;;2.07;1.87;;;;;;;;;;6156144;23;20186;-88
2022/10/31 05:37:13;;;;;;;3.57;2.20;;;;;;;;;;6155939;23;20214;-88
2022/10/31 05:39:42;;;;;;;1.20;1.17;;;;;;;;;;6155881;23;20175;-88
2022/10/31 05:42:12;;;;;;;3.57;3.20;;;;;;;;;;6155839;23;20176;-88
2022/10/31 05:44:42;;;;;;;1.73;1.60;;;;;;;;;;6156123;23;20179;-88
2022/10/31 05:47:18;;;;;;;1.57;1.47;;;;;;;;;;6156164;23;20186;-89
2022/10/31 05:49:58;;;;;;;0.50;0.50;;;;;;;;;;6156436;23;20186;-88
2022/10/31 05:52:54;;;;;;;1.20;1.13;;;;;;;;;;6155651;23;20190;-88
2022/10/31 05:55:24;;;;;;;10.23;6.60;;;;;;;;;;6155679;23;20173;-88
2022/10/31 05:58:11;;;;;;;1.73;1.63;;;;;;;;;;6156030;23;20186;-88
2022/10/31 06:00:40;;;;;;;10.63;7.77;;;;;;;;;;6156962;23;20186;-88
2022/10/31 06:03:23;;;;;;;0.60;0.60;;;;;;;;;;6155870;23;20194;-88
2022/10/31 06:05:59;;;;;;;0.90;0.90;;;;;;;;;;6155478;23;20194;-88
2022/10/31 06:08:40;;;;;;;11.47;6.73;;;;;;;;;;6156882;23;20176;-88
2022/10/31 06:14:22;;;;;;;2.63;2.43;;;;;;;;;;6155671;23;20201;-88
2022/10/31 06:17:06;;;;;;;1.67;1.57;;;;;;;;;;6156634;23;20188;-88
2022/10/31 06:19:34;;;;;;;1.87;1.77;;;;;;;;;;6155428;23;20183;-88
2022/10/31 06:22:20;;;;;;;3.00;2.80;;;;;;;;;;6155867;23;20181;-88
2022/10/31 06:24:48;;;;;;;10.73;7.63;;;;;;;;;;6155497;23;20175;-89
2022/10/31 06:27:17;;;;;;;0.90;0.90;;;;;;;;;;6156604;23;20183;-88
2022/10/31 06:29:47;;;;;;;19.03;14.40;;;;;;;;;;6154895;23;20207;-88
2022/10/31 06:32:31;;;;;;;;;;;;;;;;;;;;;
2022/10/31 06:35:16;;;;;;;52.93;31.63;;;;;;;;;;6153528;23;20307;-88
2022/10/31 06:37:53;;;;;;;57.63;36.50;;;;;;;;;;6156432;23;20175;-87
2022/10/31 06:40:21;;;;;;;51.93;32.97;;;;;;;;;;6155287;23;20235;-86
2022/10/31 06:42:58;;;;;;;55.60;33.57;;;;;;;;;;6156505;23;20201;-86
2022/10/31 06:45:35;;;;;;;52.57;33.60;;;;;;;;;;6155276;23;20177;-85
2022/10/31 06:48:04;;;;;;;57.63;35.83;;;;;;;;;;6156289;23;20170;-86
2022/10/31 06:50:45;;;;;;;51.23;33.67;;;;;;;;;;6155054;23;20183;-86
2022/10/31 06:53:14;;;;;;;42.50;24.80;;;;;;;;;;6155098;23;20193;-86
2022/10/31 06:55:43;;;;;;;57.00;32.83;;;;;;;;;;6179759;23;20176;-86
2022/10/31 06:58:12;;;;;;;59.77;32.90;;;;;;;;;;6155041;23;20175;-86
2022/10/31 07:00:41;;;;;;;59.40;32.57;;;;;;;;;;6156611;23;20183;-86
2022/10/31 07:03:12;;;;;;;49.10;27.80;;;;;;;;;;6155190;23;20274;-87
2022/10/31 07:05:40;;;;;;;53.33;36.03;;;;;;;;;;6154886;23;20177;-87
2022/10/31 07:08:11;;;;;;;41.60;27.40;;;;;;;;;;6155080;23;20182;-86
2022/10/31 07:10:40;;;;;;;38.03;23.97;;;;;;;;;;6155300;23;20180;-87
2022/10/31 07:13:13;;;;;;;34.77;22.83;;;;;;;;;;6154904;23;20185;-87
2022/10/31 07:15:44;;;;;;;45.13;26.93;;;;;;;;;;6155062;23;20210;-86
2022/10/31 07:18:13;;;;;;;64.60;41.33;;;;;;;;;;6154815;23;20264;-87
2022/10/31 07:20:41;;;;;;;40.47;25.20;;;;;;;;;;6155928;23;20179;-86
2022/10/31 07:23:10;;;;;;;58.13;37.40;;;;;;;;;;6154886;23;20186;-86
2022/10/31 07:25:39;;;;;;;61.23;37.53;;;;;;;;;;6156233;23;20217;-86
2022/10/31 07:28:08;;;;;;;46.63;26.13;;;;;;;;;;6155860;23;20171;-87
2022/10/31 07:30:37;;;;;;;31.93;20.27;;;;;;;;;;6154894;23;20179;-86
2022/10/31 07:33:07;;;;;;;37.53;24.67;;;;;;;;;;6154641;23;20183;-86
2022/10/31 07:35:36;;;;;;;45.60;29.13;;;;;;;;;;6155988;23;20211;-86
2022/10/31 07:38:11;;;;;;;51.17;32.40;;;;;;;;;;6154841;23;20218;-87
2022/10/31 07:40:40;;;;;;;34.53;26.10;;;;;;;;;;6154807;23;20190;-87
2022/10/31 07:43:08;;;;;;;30.70;20.10;;;;;;;;;;6154490;23;20183;-86
2022/10/31 07:45:41;;;;;;;40.60;28.23;;;;;;;;;;6179872;23;20190;-86
2022/10/31 07:48:11;;;;;;;35.83;24.60;;;;;;;;;;6155007;23;20185;-86
2022/10/31 07:50:40;;;;;;;47.60;32.57;;;;;;;;;;6154730;23;20183;-86
2022/10/31 07:53:11;;;;;;;39.80;28.30;;;;;;;;;;6154675;23;20186;-86
2022/10/31 07:55:43;;;;;;;32.20;23.77;;;;;;;;;;6154432;23;20211;-86
2022/10/31 07:58:12;;;;;;;34.60;24.37;;;;;;;;;;6154654;23;20183;-86
2022/10/31 08:00:42;;;;;;;47.10;32.70;;;;;;;;;;6179617;23;20184;-86
2022/10/31 08:03:13;;;;;;;19.17;13.33;;;;;;;;;;6155716;23;20222;-85
2022/10/31 08:05:44;;;;;;;26.53;18.63;;;;;;;;;;6154808;23;20171;-85
2022/10/31 08:08:13;;;;;;;28.90;22.13;;;;;;;;;;6156251;23;20207;-85
2022/10/31 08:10:43;;;;;;;24.33;19.53;;;;;;;;;;6154629;23;20186;-85
2022/10/31 08:13:12;;;;;;;24.07;15.90;;;;;;;;;;6154872;23;20242;-86
2022/10/31 08:15:42;;;;;;;21.93;15.03;;;;;;;;;;6154980;23;20191;-86
2022/10/31 08:18:14;;;;;;;3.73;3.40;;;;;;;;;;6154743;23;20186;-86
2022/10/31 08:20:45;;;;;;;19.30;14.23;;;;;;;;;;6154799;23;20254;-85
2022/10/31 08:23:16;;;;;;;20.13;14.17;;;;;;;;;;6154698;23;20266;-86
2022/10/31 08:25:46;;;;;;;14.20;10.30;;;;;;;;;;6154600;23;20179;-86
2022/10/31 08:28:16;;;;;;;8.67;7.63;;;;;;;;;;6154497;23;20179;-86
2022/10/31 08:30:45;;;;;;;17.63;13.93;;;;;;;;;;6154660;23;20180;-86
2022/10/31 08:33:16;;;;;;;10.43;6.73;;;;;;;;;;6154036;23;20180;-86
2022/10/31 08:35:47;;;;;;;29.80;20.77;;;;;;;;;;6154411;23;20239;-86
2022/10/31 08:38:17;;;;;;;20.93;14.43;;;;;;;;;;6154569;23;20175;-86
2022/10/31 08:40:50;;;;;;;24.60;20.50;;;;;;;;;;6154215;23;20180;-86
2022/10/31 08:43:19;;;;;;;33.40;27.30;;;;;;;;;;6154669;23;20180;-85
2022/10/31 08:45:50;;;;;;;19.00;15.80;;;;;;;;;;6154930;23;20226;-86
2022/10/31 08:48:20;;;;;;;19.53;12.17;;;;;;;;;;6154442;23;20183;-86
2022/10/31 08:50:49;;;;;;;5.40;4.57;;;;;;;;;;6154445;23;20266;-86
2022/10/31 08:53:18;;;;;;;22.63;16.67;;;;;;;;;;6155408;23;20183;-85
2022/10/31 08:55:48;;;;;;;6.77;6.37;;;;;;;;;;6181334;23;20198;-86
2022/10/31 08:58:19;;;;;;;20.30;13.93;;;;;;;;;;6156393;23;20186;-85
2022/10/31 09:00:50;;;;;;;4.50;1.70;;;;;;;;;;6156784;23;20176;-86
2022/10/31 09:03:21;;;;;;;7.77;7.03;;;;;;;;;;6156432;23;20205;-85
2022/10/31 09:05:49;;;;;;;21.90;14.47;;;;;;;;;;6156377;23;20176;-86
2022/10/31 09:08:18;;;;;;;11.70;7.57;;;;;;;;;;6181452;23;20207;-86
2022/10/31 09:10:47;;;;;;;23.93;17.30;;;;;;;;;;6156576;23;20210;-86
2022/10/31 09:13:18;;;;;;;23.20;17.37;;;;;;;;;;6156208;23;20193;-86
2022/10/31 09:16:06;;;;;;;14.20;12.13;;;;;;;;;;6153315;23;20200;-85
2022/10/31 09:18:43;;;;;;;22.10;17.67;;;;;;;;;;6153593;23;20246;-86
2022/10/31 09:21:12;;;;;;;11.23;8.70;;;;;;;;;;6150853;23;20180;-85
2022/10/31 09:23:41;;;;;;;12.63;9.50;;;;;;;;;;6153218;23;20184;-84
2022/10/31 09:26:12;;;;;;;13.30;10.87;;;;;;;;;;6153496;23;20182;-85
2022/10/31 09:28:41;;;;;;;5.53;4.90;;;;;;;;;;6153823;23;20260;-85
2022/10/31 09:31:10;;;;;;;8.60;5.83;;;;;;;;;;6152471;23;20182;-86
2022/10/31 09:33:39;;;;;;;8.87;6.63;;;;;;;;;;6151489;23;20213;-85
2022/10/31 09:36:30;;;;;;;4.93;4.47;;;;;;;;;;6150639;23;20212;-87
2022/10/31 09:46:53;;;;;;;14.07;10.90;;;;;;;;;;6117089;23;20183;-86
2022/10/31 09:50:39;;;;;;;18.83;11.63;;;;;;;;;;5972299;23;20234;-86
2022/10/31 10:02:01;;;;;;;4.60;3.50;;;;;;;;;;6034537;23;20259;-87
2022/10/31 10:08:38;;;;;;;1.17;1.13;;;;;;;;;;6004400;23;20195;-85
2022/10/31 10:11:56;;;;;;;5.40;4.20;;;;;;;;;;6028604;23;20201;-85
2022/10/31 10:18:05;;;;;;;7.83;4.00;;;;;;;;;;6148904;23;20202;-84
2022/10/31 10:24:05;;;;;;;11.33;6.93;;;;;;;;;;6151630;23;20205;-86
2022/10/31 10:26:59;;;;;;;11.97;7.33;;;;;;;;;;6152494;23;20194;-86
2022/10/31 10:29:36;;;;;;;13.50;8.20;;;;;;;;;;6151275;23;20202;-85
2022/10/31 10:32:07;;;;;;;10.90;8.27;;;;;;;;;;6148214;23;20197;-84
2022/10/31 10:34:38;;;;;;;11.27;9.17;;;;;;;;;;6149003;23;20205;-83
2022/10/31 10:37:14;;;;;;;13.43;7.90;;;;;;;;;;6150542;23;20249;-82
2022/10/31 10:39:51;;;;;;;11.73;7.27;;;;;;;;;;6152496;23;20202;-82
2022/10/31 10:48:08;;;;;;;5.57;4.83;;;;;;;;;;6148438;23;20194;-83
2022/10/31 10:50:38;;;;;;;10.17;6.87;;;;;;;;;;6148331;23;20192;-82
2022/10/31 10:53:21;;;;;;;10.17;7.70;;;;;;;;;;6149646;23;20194;-84
2022/10/31 10:55:54;;;;;;;10.63;6.87;;;;;;;;;;6150185;23;20204;-82
2022/10/31 10:58:36;;;;;;;11.53;6.33;;;;;;;;;;6151326;23;20300;-83
2022/10/31 11:01:12;;;;;;;15.27;10.10;;;;;;;;;;6148302;23;20198;-82
2022/10/31 11:03:49;;;;;;;8.33;6.80;;;;;;;;;;6149875;23;20209;-83
2022/10/31 11:06:28;;;;;;;3.40;3.20;;;;;;;;;;6148881;23;20248;-83
2022/10/31 11:09:10;;;;;;;12.43;6.37;;;;;;;;;;6149083;23;20197;-84
2022/10/31 11:11:43;;;;;;;12.50;6.10;;;;;;;;;;6148135;23;20202;-83
2022/10/31 11:14:32;;;;;;;3.00;1.63;;;;;;;;;;6147965;23;20203;-86
2022/10/31 11:17:25;;;;;;;6.67;1.63;;;;;;;;;;6148246;23;20211;-84
2022/10/31 11:20:14;;;;;;;13.17;7.60;;;;;;;;;;6147040;23;20199;-83
2022/10/31 11:22:55;;;;;;;2.07;1.97;;;;;;;;;;6149374;23;20259;-83
2022/10/31 11:25:30;;;;;;;5.10;2.23;;;;;;;;;;6147467;23;20293;-85
2022/10/31 11:28:05;;;;;;;0.97;0.97;;;;;;;;;;6147411;23;20199;-84
2022/10/31 11:30:49;;;;;;;2.50;2.30;;;;;;;;;;6149143;23;20226;-83
2022/10/31 11:33:22;;;;;;;1.07;1.07;;;;;;;;;;6147358;23;20214;-82
2022/10/31 11:35:52;;;;;;;2.43;2.03;;;;;;;;;;6147319;23;20312;-82
2022/10/31 11:38:35;;;;;;;5.83;3.40;;;;;;;;;;6148102;23;20228;-82
2022/10/31 11:41:09;;;;;;;1.10;1.10;;;;;;;;;;6149430;23;20202;-81
2022/10/31 11:43:38;;;;;;;2.73;1.87;;;;;;;;;;6146851;23;20312;-81
2022/10/31 11:46:16;;;;;;;2.37;1.93;;;;;;;;;;6146587;23;20286;-82
2022/10/31 11:48:48;;;;;;;4.90;2.60;;;;;;;;;;6146971;23;20249;-82
2022/10/31 11:51:27;;;;;;;1.87;1.60;;;;;;;;;;6148050;23;20238;-81
2022/10/31 11:53:57;;;;;;;1.17;0.80;;;;;;;;;;6149559;23;20195;-81
2022/10/31 11:56:39;;;;;;;0.70;0.70;;;;;;;;;;6149577;23;20251;-83
2022/10/31 11:59:20;;;;;;;1.23;1.23;;;;;;;;;;6147071;23;20199;-83
2022/10/31 12:01:52;;;;;;;0.97;0.97;;;;;;;;;;6148908;23;20218;-83
2022/10/31 12:04:27;;;;;;;5.20;2.43;;;;;;;;;;6149304;23;20239;-81
2022/10/31 12:06:56;;;;;;;0.93;0.93;;;;;;;;;;6149140;23;20278;-82
2022/10/31 12:09:27;;;;;;;0.50;0.50;;;;;;;;;;6149604;23;20195;-81
2022/10/31 12:12:05;;;;;;;3.00;2.20;;;;;;;;;;6148760;23;20242;-80
2022/10/31 12:14:38;;;;;;;0.50;0.50;;;;;;;;;;6149307;23;20211;-80
2022/10/31 12:17:14;;;;;;;0.93;0.90;;;;;;;;;;6149469;23;20195;-81
2022/10/31 12:19:46;;;;;;;3.17;2.90;;;;;;;;;;6148238;23;20246;-81
2022/10/31 12:22:24;;;;;;;0.97;0.97;;;;;;;;;;6149413;23;20314;-82
2022/10/31 12:25:04;;;;;;;1.53;1.43;;;;;;;;;;6149284;23;20227;-81
2022/10/31 12:27:56;;;;;;;1.20;1.10;;;;;;;;;;6146579;23;20279;-84
2022/10/31 12:30:30;;;;;;;2.97;1.53;;;;;;;;;;6148895;23;20227;-82
2022/10/31 12:36:47;;;;;;;0.97;0.97;;;;;;;;;;6128466;23;20203;-83
2022/10/31 12:39:26;;;;;;;15.10;4.13;;;;;;;;;;6149766;23;20222;-80
2022/10/31 12:42:03;;;;;;;1.07;1.03;;;;;;;;;;6148767;23;20302;-81
2022/10/31 12:44:49;;;;;;;9.23;2.87;;;;;;;;;;6149599;23;20268;-80
2022/10/31 12:47:31;;;;;;;1.30;1.30;;;;;;;;;;6146882;23;20192;-82
2022/10/31 12:50:12;;;;;;;6.17;4.50;;;;;;;;;;6147503;23;20200;-81
2022/10/31 12:52:50;;;;;;;10.27;5.37;;;;;;;;;;6149691;23;20199;-80
2022/10/31 12:55:31;;;;;;;7.73;6.97;;;;;;;;;;6150596;23;20199;-81
2022/10/31 12:58:04;;;;;;;3.33;3.03;;;;;;;;;;6147863;23;20214;-80
2022/10/31 13:00:41;;;;;;;5.43;4.00;;;;;;;;;;6148527;23;20206;-82
2022/10/31 13:03:21;;;;;;;10.03;4.87;;;;;;;;;;6148019;23;20206;-81
2022/10/31 13:05:56;;;;;;;6.73;4.70;;;;;;;;;;6148181;23;20192;-82
2022/10/31 13:08:29;;;;;;;7.57;5.13;;;;;;;;;;6148604;23;20218;-82
2022/10/31 13:11:03;;;;;;;1.23;1.23;;;;;;;;;;6147834;23;20230;-81
2022/10/31 13:13:34;;;;;;;4.90;3.03;;;;;;;;;;6148822;23;20191;-84
2022/10/31 13:16:06;;;;;;;3.27;2.97;;;;;;;;;;6148644;23;20195;-80
2022/10/31 13:18:41;;;;;;;1.73;1.63;;;;;;;;;;6149403;23;20224;-80
2022/10/31 13:21:11;;;;;;;3.13;2.80;;;;;;;;;;6149686;23;20196;-81
2022/10/31 13:23:41;;;;;;;1.43;1.43;;;;;;;;;;6148957;23;20207;-82
2022/10/31 13:26:23;;;;;;;4.03;3.80;;;;;;;;;;6148046;23;20271;-81
2022/10/31 13:28:58;;;;;;;1.53;1.43;;;;;;;;;;6149385;23;20195;-80
2022/10/31 13:31:27;;;;;;;3.57;2.37;;;;;;;;;;6148670;23;20194;-79
2022/10/31 13:33:57;;;;;;;2.73;1.00;;;;;;;;;;6150102;23;20196;-80
2022/10/31 13:36:32;;;;;;;0.83;0.83;;;;;;;;;;6147609;23;20216;-82
2022/10/31 13:39:07;;;;;;;5.60;5.07;;;;;;;;;;6149338;23;20195;-81
2022/10/31 13:41:47;;;;;;;6.30;3.37;;;;;;;;;;6149850;23;20261;-80
2022/10/31 13:44:24;;;;;;;1.87;1.63;;;;;;;;;;6149121;23;20272;-81
2022/10/31 13:46:55;;;;;;;2.50;2.30;;;;;;;;;;6148605;23;20299;-81
2022/10/31 13:49:27;;;;;;;11.40;3.83;;;;;;;;;;6148461;23;20204;-81
2022/10/31 13:52:13;;;;;;;4.33;1.50;;;;;;;;;;6147537;23;20225;-80
2022/10/31 13:54:47;;;;;;;2.90;2.70;;;;;;;;;;6148893;23;20266;-80
2022/10/31 13:57:21;;;;;;;5.33;4.13;;;;;;;;;;6148947;23;20266;-80
2022/10/31 14:00:01;;;;;;;2.00;1.90;;;;;;;;;;6172720;23;20222;-83
2022/10/31 14:02:36;;;;;;;1.97;1.87;;;;;;;;;;6173711;23;20195;-81
2022/10/31 14:05:20;;;;;;;1.83;1.73;;;;;;;;;;6149445;23;20266;-81
2022/10/31 14:07:59;;;;;;;3.90;2.23;;;;;;;;;;6149003;23;20196;-81
2022/10/31 14:10:36;;;;;;;1.80;1.70;;;;;;;;;;6148003;23;20199;-83
2022/10/31 14:13:12;;;;;;;1.13;1.13;;;;;;;;;;6148911;23;20240;-82
2022/10/31 14:15:54;;;;;;;9.23;7.17;;;;;;;;;;6147592;23;20203;-82
2022/10/31 14:18:41;;;;;;;3.80;2.70;;;;;;;;;;6150676;23;20227;-84
2022/10/31 14:21:30;;;;;;;2.13;2.03;;;;;;;;;;6152234;23;20258;-85
2022/10/31 14:24:35;;;;;;;3.53;3.17;;;;;;;;;;6149446;23;20195;-81
2022/10/31 14:27:50;;;;;;;6.00;4.60;;;;;;;;;;6150532;23;20195;-85
2022/10/31 14:33:14;;;;;;;9.87;4.80;;;;;;;;;;6147732;23;20442;-83
2022/10/31 14:36:27;;;;;;;13.03;4.30;;;;;;;;;;6114061;23;20216;-83
2022/10/31 14:39:29;;;;;;;;;;;;;;;;;;;;;
2022/10/31 14:42:29;;;;;;;4.10;3.77;;;;;;;;;;6149439;23;20206;-86
2022/10/31 14:45:23;;;;;;;5.17;4.00;;;;;;;;;;6149235;23;20206;-81
2022/10/31 14:48:05;;;;;;;6.07;4.63;;;;;;;;;;6150765;23;20199;-83
2022/10/31 14:50:47;;;;;;;3.13;2.10;;;;;;;;;;6150251;23;20206;-84
2022/10/31 14:53:31;;;;;;;6.30;4.30;;;;;;;;;;6148213;23;20198;-82
2022/10/31 14:56:21;;;;;;;10.93;3.40;;;;;;;;;;6151287;23;20202;-83
2022/10/31 14:58:50;;;;;;;10.60;5.03;;;;;;;;;;6151685;23;20200;-82
2022/10/31 15:01:33;;;;;;;4.40;3.87;;;;;;;;;;6149032;23;20195;-85
2022/10/31 15:04:05;;;;;;;5.63;3.40;;;;;;;;;;6150962;23;20206;-82
2022/10/31 15:06:58;;;;;;;8.00;3.53;;;;;;;;;;6151649;23;20179;-84
2022/10/31 15:09:31;;;;;;;3.20;2.90;;;;;;;;;;6151575;23;20300;-82
2022/10/31 15:12:02;;;;;;;6.73;4.63;;;;;;;;;;6151398;23;20175;-82
2022/10/31 15:14:39;;;;;;;2.30;2.17;;;;;;;;;;6154263;23;20180;-83
2022/10/31 15:17:15;;;;;;;7.33;5.00;;;;;;;;;;6150683;23;20181;-82
2022/10/31 15:19:44;;;;;;;1.67;1.57;;;;;;;;;;6151626;23;20193;-81
2022/10/31 15:22:16;;;;;;;6.03;3.47;;;;;;;;;;6153387;23;20212;-83
2022/10/31 15:24:57;;;;;;;3.17;2.90;;;;;;;;;;6151087;23;20182;-84
2022/10/31 15:27:33;;;;;;;1.93;1.17;;;;;;;;;;6151358;23;20174;-84
2022/10/31 15:30:02;;;;;;;3.87;2.83;;;;;;;;;;6150042;23;20179;-84
2022/10/31 15:32:38;;;;;;;1.10;1.00;;;;;;;;;;6151164;23;20186;-82
2022/10/31 15:35:23;;;;;;;2.03;1.93;;;;;;;;;;6151363;23;20186;-83
2022/10/31 15:37:56;;;;;;;4.37;3.57;;;;;;;;;;6152076;23;20197;-82
2022/10/31 15:40:29;;;;;;;5.00;3.70;;;;;;;;;;6151952;23;20242;-82
2022/10/31 15:43:01;;;;;;;0.60;0.60;;;;;;;;;;6151667;23;20186;-80
2022/10/31 15:45:36;;;;;;;2.10;1.60;;;;;;;;;;6151984;23;20178;-83
2022/10/31 15:48:18;;;;;;;2.73;1.57;;;;;;;;;;6151833;23;20182;-80
2022/10/31 15:50:49;;;;;;;12.97;4.07;;;;;;;;;;6151405;23;20244;-78
2022/10/31 15:53:19;;;;;;;2.97;1.40;;;;;;;;;;6151664;23;20187;-82
2022/10/31 15:55:50;;;;;;;7.13;3.13;;;;;;;;;;6152042;23;20183;-81
2022/10/31 15:58:30;;;;;;;3.83;3.53;;;;;;;;;;6153234;23;20201;-80
2022/10/31 16:01:07;;;;;;;5.17;4.33;;;;;;;;;;6155156;23;20170;-81